Time;durP1;ratioP1;P1;durP2;ratioP2;P2;SDS_P1;SDS_P2;PMS_P1;PMS_P2;Temp;Humidity;BMP_temperature;BMP_pressure;BME280_temperature;BME280_humidity;BME280_pressure;Samples;Min_cycle;Max_cycle;Signal;HPM_P1;HPM_P2
2024/01/19 00:00:25;;;;;;;10.27;1.70;;;;;;;;;;5032747;28;20056;-78
2024/01/19 00:02:54;;;;;;;10.88;2.13;;;;;;;;;;5063027;28;20045;-77
2024/01/19 00:05:20;;;;;;;10.93;2.45;;;;;;;;;;5037159;28;20425;-80
2024/01/19 00:07:46;;;;;;;10.52;1.85;;;;;;;;;;5026308;28;20049;-79
2024/01/19 00:10:13;;;;;;;8.23;2.00;;;;;;;;;;5044083;28;20109;-79
2024/01/19 00:12:39;;;;;;;11.85;2.50;;;;;;;;;;5051495;28;20051;-79
2024/01/19 00:15:09;;;;;;;9.63;1.85;;;;;;;;;;5017615;28;20041;-78
2024/01/19 00:17:36;;;;;;;8.27;2.08;;;;;;;;;;5034798;28;20497;-79
2024/01/19 00:20:02;;;;;;;6.40;1.67;;;;;;;;;;5043615;28;20049;-78
2024/01/19 00:22:28;;;;;;;10.43;2.20;;;;;;;;;;5053555;28;20060;-78
2024/01/19 00:24:54;;;;;;;9.57;2.40;;;;;;;;;;5035672;28;20106;-74
2024/01/19 00:27:21;;;;;;;10.90;1.83;;;;;;;;;;5052969;28;20101;-79
2024/01/19 00:29:47;;;;;;;11.77;1.95;;;;;;;;;;5070165;28;20072;-79
2024/01/19 00:32:13;;;;;;;9.20;2.38;;;;;;;;;;5042015;28;20049;-78
2024/01/19 00:34:39;;;;;;;6.95;1.42;;;;;;;;;;5019007;28;20049;-78
2024/01/19 00:37:07;;;;;;;9.70;2.00;;;;;;;;;;5043596;28;20063;-78
2024/01/19 00:39:33;;;;;;;7.47;2.08;;;;;;;;;;5024497;28;20037;-78
2024/01/19 00:41:59;;;;;;;9.57;1.85;;;;;;;;;;5042737;28;20041;-76
2024/01/19 00:44:25;;;;;;;17.10;2.20;;;;;;;;;;5070845;28;20045;-78
2024/01/19 00:46:51;;;;;;;12.30;2.35;;;;;;;;;;5036348;28;20102;-78
2024/01/19 00:49:17;;;;;;;12.65;2.50;;;;;;;;;;5059502;28;20152;-80
2024/01/19 00:51:44;;;;;;;11.70;2.78;;;;;;;;;;5031092;28;20053;-78
2024/01/19 00:54:10;;;;;;;13.82;2.45;;;;;;;;;;5053857;28;20061;-77
2024/01/19 00:56:36;;;;;;;9.88;2.25;;;;;;;;;;5038425;28;20041;-78
2024/01/19 00:59:02;;;;;;;7.45;2.30;;;;;;;;;;5028716;28;20065;-76
2024/01/19 01:01:28;;;;;;;10.45;2.05;;;;;;;;;;5017155;28;20481;-78
2024/01/19 01:03:55;;;;;;;8.18;2.20;;;;;;;;;;5033165;28;20032;-78
2024/01/19 01:06:21;;;;;;;9.15;2.13;;;;;;;;;;5072313;28;20053;-78
2024/01/19 01:08:47;;;;;;;9.27;1.90;;;;;;;;;;5068000;28;20056;-78
2024/01/19 01:11:13;;;;;;;8.32;2.10;;;;;;;;;;5031957;28;20132;-78
2024/01/19 01:13:39;;;;;;;12.55;2.75;;;;;;;;;;5041901;28;20055;-79
2024/01/19 01:16:05;;;;;;;13.48;2.08;;;;;;;;;;5051103;28;20041;-76
2024/01/19 01:18:31;;;;;;;7.18;1.45;;;;;;;;;;5066291;28;20084;-77
2024/01/19 01:20:58;;;;;;;8.82;2.15;;;;;;;;;;5070766;28;20041;-78
2024/01/19 01:23:24;;;;;;;7.07;2.00;;;;;;;;;;5048250;28;20029;-77
2024/01/19 01:25:50;;;;;;;6.43;1.80;;;;;;;;;;5031324;28;20453;-77
2024/01/19 01:28:16;;;;;;;6.72;1.77;;;;;;;;;;5049709;28;20076;-78
2024/01/19 01:30:42;;;;;;;6.65;1.40;;;;;;;;;;5043805;28;20104;-78
2024/01/19 01:33:09;;;;;;;6.82;1.70;;;;;;;;;;5030278;28;20568;-74
2024/01/19 01:35:35;;;;;;;6.80;1.80;;;;;;;;;;5032163;28;20088;-78
2024/01/19 01:38:02;;;;;;;9.10;1.60;;;;;;;;;;5011870;28;20045;-78
2024/01/19 01:40:29;;;;;;;11.48;1.80;;;;;;;;;;5049562;28;20052;-77
2024/01/19 01:43:00;;;;;;;4.50;1.30;;;;;;;;;;5051686;28;20045;-78
2024/01/19 01:45:26;;;;;;;5.90;1.63;;;;;;;;;;5035929;28;20045;-78
2024/01/19 01:47:53;;;;;;;9.18;2.00;;;;;;;;;;5047717;28;20068;-77
2024/01/19 01:50:19;;;;;;;6.55;1.63;;;;;;;;;;5047602;28;20056;-78
2024/01/19 01:52:46;;;;;;;7.72;2.03;;;;;;;;;;5049046;28;20097;-78
2024/01/19 01:55:13;;;;;;;6.78;1.75;;;;;;;;;;5033358;28;20025;-77
2024/01/19 01:57:40;;;;;;;8.93;2.00;;;;;;;;;;5031744;28;20041;-76
2024/01/19 02:00:08;;;;;;;5.97;1.95;;;;;;;;;;5033526;28;20059;-74
2024/01/19 02:02:34;;;;;;;12.00;2.22;;;;;;;;;;5048693;28;20046;-78
2024/01/19 02:05:00;;;;;;;6.93;1.55;;;;;;;;;;5019606;28;20055;-76
2024/01/19 02:07:26;;;;;;;9.88;1.73;;;;;;;;;;5051676;28;20305;-79
2024/01/19 02:09:52;;;;;;;9.15;2.00;;;;;;;;;;5045877;28;20042;-78
2024/01/19 02:12:19;;;;;;;10.90;1.95;;;;;;;;;;5049442;28;20203;-76
2024/01/19 02:14:45;;;;;;;10.48;1.73;;;;;;;;;;5033795;28;20515;-78
2024/01/19 02:17:11;;;;;;;8.20;2.30;;;;;;;;;;5052247;28;20087;-76
2024/01/19 02:19:39;;;;;;;8.75;1.90;;;;;;;;;;5032137;28;20051;-78
2024/01/19 02:22:05;;;;;;;;;;;;;;;;;;5032933;28;20049;-79
2024/01/19 02:24:31;;;;;;;13.10;1.50;;;;;;;;;;5009947;28;19944;-78
2024/01/19 02:26:57;;;;;;;8.10;1.80;;;;;;;;;;5022386;28;20179;-79
2024/01/19 02:29:24;;;;;;;9.37;2.10;;;;;;;;;;5025902;28;20099;-78
2024/01/19 02:31:50;;;;;;;6.88;1.60;;;;;;;;;;5058631;28;20045;-78
2024/01/19 02:34:16;;;;;;;9.88;2.13;;;;;;;;;;5066862;28;20033;-78
2024/01/19 02:36:42;;;;;;;10.02;1.88;;;;;;;;;;5066289;28;20041;-79
2024/01/19 02:39:08;;;;;;;9.15;1.88;;;;;;;;;;5049188;28;20148;-79
2024/01/19 02:41:34;;;;;;;11.98;1.73;;;;;;;;;;5015616;28;20054;-76
2024/01/19 02:44:00;;;;;;;11.75;1.83;;;;;;;;;;5045240;28;20037;-78
2024/01/19 02:46:26;;;;;;;10.90;2.13;;;;;;;;;;5028571;28;20465;-79
2024/01/19 02:48:52;;;;;;;9.90;1.90;;;;;;;;;;5028526;28;20050;-78
2024/01/19 02:51:18;;;;;;;7.65;2.00;;;;;;;;;;5040774;28;20053;-80
2024/01/19 02:53:44;;;;;;;9.68;2.30;;;;;;;;;;5037632;28;20052;-79
2024/01/19 02:56:11;;;;;;;8.00;2.00;;;;;;;;;;5070931;28;20047;-80
2024/01/19 02:58:37;;;;;;;11.32;2.17;;;;;;;;;;5035840;28;20045;-77
2024/01/19 03:01:03;;;;;;;10.15;2.08;;;;;;;;;;5070394;28;20053;-80
2024/01/19 03:03:29;;;;;;;12.50;2.10;;;;;;;;;;5053443;28;20055;-80
2024/01/19 03:05:55;;;;;;;10.30;2.70;;;;;;;;;;5053543;28;20045;-79
2024/01/19 03:08:22;;;;;;;8.25;2.28;;;;;;;;;;5055985;28;20126;-77
2024/01/19 03:10:48;;;;;;;12.27;1.77;;;;;;;;;;5044733;28;20385;-77
2024/01/19 03:13:14;;;;;;;7.15;1.83;;;;;;;;;;5036615;28;20092;-79
2024/01/19 03:15:40;;;;;;;5.45;1.25;;;;;;;;;;5038129;28;20048;-78
2024/01/19 03:18:06;;;;;;;7.93;0.75;;;;;;;;;;5053623;28;20051;-78
2024/01/19 03:20:32;;;;;;;5.03;0.80;;;;;;;;;;5033275;28;20141;-77
2024/01/19 03:22:58;;;;;;;2.50;0.60;;;;;;;;;;5051518;28;20124;-76
2024/01/19 03:25:24;;;;;;;4.45;0.50;;;;;;;;;;5055620;28;20045;-77
2024/01/19 03:27:50;;;;;;;1.55;0.40;;;;;;;;;;5039513;28;20041;-78
2024/01/19 03:30:17;;;;;;;4.85;0.63;;;;;;;;;;5022049;28;20063;-79
2024/01/19 03:32:43;;;;;;;5.22;0.50;;;;;;;;;;5039313;28;20033;-78
2024/01/19 03:35:09;;;;;;;4.20;0.82;;;;;;;;;;5056027;28;20133;-78
2024/01/19 03:37:38;;;;;;;1.60;0.47;;;;;;;;;;5023147;28;20049;-78
2024/01/19 03:40:06;;;;;;;4.32;0.50;;;;;;;;;;5038498;28;20045;-79
2024/01/19 03:42:32;;;;;;;3.75;0.60;;;;;;;;;;5056579;28;20037;-77
2024/01/19 03:44:58;;;;;;;2.42;0.45;;;;;;;;;;5040051;28;20124;-79
2024/01/19 03:47:24;;;;;;;4.43;0.65;;;;;;;;;;5039187;28;20694;-76
2024/01/19 03:49:50;;;;;;;3.70;0.88;;;;;;;;;;5041963;28;20095;-78
2024/01/19 03:52:16;;;;;;;3.83;0.50;;;;;;;;;;5049389;28;20046;-78
2024/01/19 03:54:42;;;;;;;3.92;0.55;;;;;;;;;;5031407;28;20072;-78
2024/01/19 03:57:09;;;;;;;4.03;0.70;;;;;;;;;;5039433;28;20045;-78
2024/01/19 03:59:35;;;;;;;4.85;0.60;;;;;;;;;;5056737;28;20060;-79
2024/01/19 04:02:01;;;;;;;2.30;0.80;;;;;;;;;;5070807;28;20052;-79
2024/01/19 04:04:27;;;;;;;5.97;0.60;;;;;;;;;;5052185;28;20033;-77
2024/01/19 04:06:55;;;;;;;8.52;0.77;;;;;;;;;;5066007;28;20053;-78
2024/01/19 04:09:21;;;;;;;4.18;0.60;;;;;;;;;;5057754;28;20071;-78
2024/01/19 04:11:48;;;;;;;4.47;0.88;;;;;;;;;;5055648;28;20068;-79
2024/01/19 04:14:14;;;;;;;5.45;0.70;;;;;;;;;;5073246;28;20041;-79
2024/01/19 04:16:41;;;;;;;2.20;0.60;;;;;;;;;;5064040;28;20094;-79
2024/01/19 04:19:07;;;;;;;7.32;0.65;;;;;;;;;;5054238;28;20076;-77
2024/01/19 04:21:33;;;;;;;2.42;0.43;;;;;;;;;;5053316;28;20132;-77
2024/01/19 04:23:59;;;;;;;3.25;0.55;;;;;;;;;;5014911;28;20045;-78
2024/01/19 04:26:29;;;;;;;4.13;0.70;;;;;;;;;;5049739;28;20052;-78
2024/01/19 04:28:55;;;;;;;4.10;0.40;;;;;;;;;;5035401;28;20026;-77
2024/01/19 04:31:21;;;;;;;4.05;0.57;;;;;;;;;;5035112;28;20109;-78
2024/01/19 04:33:49;;;;;;;;;;;;;;;;;;5061985;28;20052;-77
2024/01/19 04:36:15;;;;;;;5.20;0.75;;;;;;;;;;5040227;28;19925;-75
2024/01/19 04:38:42;;;;;;;5.38;0.73;;;;;;;;;;5035312;28;20117;-80
2024/01/19 04:41:08;;;;;;;4.05;0.70;;;;;;;;;;5055202;28;20049;-78
2024/01/19 04:43:34;;;;;;;7.28;0.80;;;;;;;;;;5039112;28;20091;-78
2024/01/19 04:46:00;;;;;;;3.33;0.88;;;;;;;;;;5039140;28;20048;-80
2024/01/19 04:48:26;;;;;;;6.32;1.25;;;;;;;;;;5032376;28;20053;-80
2024/01/19 04:50:52;;;;;;;8.20;1.40;;;;;;;;;;5026767;28;20049;-78
2024/01/19 04:53:18;;;;;;;10.18;1.80;;;;;;;;;;5035288;28;20057;-79
2024/01/19 04:55:44;;;;;;;11.55;1.85;;;;;;;;;;5074886;28;20037;-80
2024/01/19 04:58:10;;;;;;;5.28;1.70;;;;;;;;;;5074940;28;20553;-79
2024/01/19 05:00:38;;;;;;;7.78;2.50;;;;;;;;;;5042889;28;20033;-77
2024/01/19 05:03:05;;;;;;;6.80;1.80;;;;;;;;;;5043480;28;20033;-79
2024/01/19 05:05:31;;;;;;;6.82;1.77;;;;;;;;;;5057588;28;20040;-79
2024/01/19 05:07:59;;;;;;;7.47;1.30;;;;;;;;;;5043633;28;20072;-78
2024/01/19 05:10:25;;;;;;;4.50;1.23;;;;;;;;;;5079507;22;20061;-80
2024/01/19 05:12:51;;;;;;;5.75;1.42;;;;;;;;;;5055087;28;20092;-78
2024/01/19 05:15:17;;;;;;;6.00;1.13;;;;;;;;;;5057732;28;20049;-80
2024/01/19 05:17:43;;;;;;;7.22;1.23;;;;;;;;;;5036288;28;20053;-80
2024/01/19 05:20:10;;;;;;;3.67;0.90;;;;;;;;;;5052777;28;20085;-81
2024/01/19 05:22:39;;;;;;;7.37;0.90;;;;;;;;;;5053482;28;20043;-75
2024/01/19 05:25:05;;;;;;;2.42;0.60;;;;;;;;;;5051768;28;20363;-82
2024/01/19 05:27:31;;;;;;;4.72;0.70;;;;;;;;;;5052993;28;20088;-80
2024/01/19 05:29:57;;;;;;;5.40;0.80;;;;;;;;;;5054455;28;20091;-79
2024/01/19 05:32:23;;;;;;;6.03;0.88;;;;;;;;;;5056297;28;20056;-80
2024/01/19 05:34:49;;;;;;;5.15;0.50;;;;;;;;;;5054481;28;20040;-78
2024/01/19 05:37:16;;;;;;;1.83;0.40;;;;;;;;;;5052309;28;20065;-79
2024/01/19 05:39:42;;;;;;;4.25;0.50;;;;;;;;;;5036077;28;20153;-80
2024/01/19 05:42:08;;;;;;;4.82;0.50;;;;;;;;;;5054431;28;20049;-78
2024/01/19 05:44:39;;;;;;;6.53;0.70;;;;;;;;;;5037909;28;20034;-79
2024/01/19 05:49:35;;;;;;;3.30;0.52;;;;;;;;;;5073541;28;19921;-79
2024/01/19 05:52:01;;;;;;;4.30;0.43;;;;;;;;;;5104817;22;20074;-82
2024/01/19 05:54:27;;;;;;;4.72;0.40;;;;;;;;;;5084466;28;20048;-80
2024/01/19 05:56:54;;;;;;;6.07;0.57;;;;;;;;;;5100826;28;20043;-81
2024/01/19 05:59:20;;;;;;;2.75;0.50;;;;;;;;;;5034148;28;20045;-82
2024/01/19 06:01:46;;;;;;;5.50;0.68;;;;;;;;;;5083533;28;20047;-75
2024/01/19 06:04:12;;;;;;;4.40;0.52;;;;;;;;;;5107839;28;20044;-81
2024/01/19 06:06:38;;;;;;;7.68;0.50;;;;;;;;;;5107535;28;20050;-81
2024/01/19 06:09:04;;;;;;;9.48;0.40;;;;;;;;;;5103590;28;20060;-81
2024/01/19 06:11:30;;;;;;;4.60;0.50;;;;;;;;;;5097797;28;20475;-81
2024/01/19 06:13:56;;;;;;;4.82;0.77;;;;;;;;;;5065113;28;20089;-80
2024/01/19 06:16:22;;;;;;;5.55;0.55;;;;;;;;;;5104362;28;20043;-82
2024/01/19 06:18:48;;;;;;;1.48;0.40;;;;;;;;;;5086078;28;20040;-80
2024/01/19 06:21:15;;;;;;;3.55;0.50;;;;;;;;;;5087791;28;20059;-80
2024/01/19 06:23:41;;;;;;;14.77;0.73;;;;;;;;;;5391350;22;20415;-79
2024/01/19 06:26:24;;;;;;;2.28;0.30;;;;;;;;;;5037812;28;20053;-80
2024/01/19 06:28:50;;;;;;;3.13;0.50;;;;;;;;;;5007770;28;20053;-78
2024/01/19 06:31:16;;;;;;;2.53;0.35;;;;;;;;;;5047483;28;20029;-81
2024/01/19 06:33:46;;;;;;;2.50;0.28;;;;;;;;;;5037099;28;20053;-81
2024/01/19 06:36:15;;;;;;;4.00;0.30;;;;;;;;;;5021447;28;20029;-81
2024/01/19 06:38:42;;;;;;;3.58;0.50;;;;;;;;;;5053315;28;20036;-80
2024/01/19 06:41:10;;;;;;;3.42;0.40;;;;;;;;;;5047139;28;20022;-81
2024/01/19 06:43:36;;;;;;;4.65;0.40;;;;;;;;;;5187214;23;20056;-81
2024/01/19 06:46:05;;;;;;;3.67;0.45;;;;;;;;;;5074798;28;20036;-80
2024/01/19 06:48:33;;;;;;;2.63;0.35;;;;;;;;;;5053791;28;20042;-81
2024/01/19 06:51:00;;;;;;;3.15;0.30;;;;;;;;;;5055925;28;20033;-80
2024/01/19 06:53:26;;;;;;;1.15;0.30;;;;;;;;;;5072152;28;20032;-79
2024/01/19 06:55:52;;;;;;;2.92;0.60;;;;;;;;;;5073897;28;20100;-79
2024/01/19 06:58:18;;;;;;;2.95;0.55;;;;;;;;;;5075253;28;20105;-82
2024/01/19 07:00:44;;;;;;;7.00;0.50;;;;;;;;;;5060388;28;20039;-77
2024/01/19 07:03:13;;;;;;;2.28;0.47;;;;;;;;;;5060642;28;20032;-80
2024/01/19 07:05:42;;;;;;;1.60;0.47;;;;;;;;;;5065829;28;20025;-80
2024/01/19 07:08:09;;;;;;;4.47;0.60;;;;;;;;;;5077745;28;20108;-80
2024/01/19 07:10:35;;;;;;;4.03;0.55;;;;;;;;;;5041855;28;20077;-81
2024/01/19 07:13:01;;;;;;;3.88;0.52;;;;;;;;;;5046838;28;20056;-78
2024/01/19 07:15:27;;;;;;;5.88;0.55;;;;;;;;;;5079747;28;20051;-80
2024/01/19 07:17:53;;;;;;;2.05;0.40;;;;;;;;;;5041579;28;20044;-77
2024/01/19 07:20:19;;;;;;;4.43;0.40;;;;;;;;;;5061175;28;20041;-79
2024/01/19 07:25:21;;;;;;;5.70;0.40;;;;;;;;;;5220569;22;20048;-83
2024/01/19 07:27:53;;;;;;;5.43;0.70;;;;;;;;;;5074074;28;20056;-82
2024/01/19 07:30:19;;;;;;;11.20;0.75;;;;;;;;;;5162460;23;20041;-79
2024/01/19 07:32:45;;;;;;;6.13;0.63;;;;;;;;;;5037773;28;20105;-81
2024/01/19 07:35:11;;;;;;;8.57;0.70;;;;;;;;;;5000473;28;20038;-79
2024/01/19 07:37:37;;;;;;;3.55;0.65;;;;;;;;;;5035596;28;20037;-81
2024/01/19 07:40:04;;;;;;;6.85;0.80;;;;;;;;;;5015628;28;20070;-80
2024/01/19 07:42:30;;;;;;;6.38;0.93;;;;;;;;;;5016249;28;20041;-83
2024/01/19 07:44:56;;;;;;;5.93;0.70;;;;;;;;;;4992989;28;20056;-75
2024/01/19 07:47:22;;;;;;;6.35;0.40;;;;;;;;;;5010301;28;20053;-80
2024/01/19 07:49:48;;;;;;;4.13;1.23;;;;;;;;;;5027142;28;20109;-82
2024/01/19 07:52:14;;;;;;;3.33;0.45;;;;;;;;;;5032230;28;20025;-81
2024/01/19 07:54:40;;;;;;;4.70;0.50;;;;;;;;;;5010107;28;20081;-81
2024/01/19 07:57:06;;;;;;;4.80;0.73;;;;;;;;;;5014803;28;20054;-82
2024/01/19 07:59:32;;;;;;;4.32;0.88;;;;;;;;;;4997665;28;20042;-81
2024/01/19 08:02:00;;;;;;;8.70;1.08;;;;;;;;;;4980528;28;20037;-77
2024/01/19 08:04:26;;;;;;;9.02;1.00;;;;;;;;;;4995718;28;20053;-81
2024/01/19 08:06:52;;;;;;;4.18;0.57;;;;;;;;;;4982299;28;20161;-80
2024/01/19 08:09:18;;;;;;;3.30;0.60;;;;;;;;;;5015190;28;20050;-80
2024/01/19 08:11:45;;;;;;;7.18;0.68;;;;;;;;;;5153956;22;20052;-81
2024/01/19 08:14:16;;;;;;;4.72;0.60;;;;;;;;;;5056040;28;20476;-80
2024/01/19 08:16:43;;;;;;;3.50;0.60;;;;;;;;;;5041503;28;20037;-83
2024/01/19 08:19:11;;;;;;;2.45;0.50;;;;;;;;;;5058428;28;20033;-76
2024/01/19 08:21:45;;;;;;;6.88;0.80;;;;;;;;;;5074208;28;20041;-78
2024/01/19 08:24:14;;;;;;;4.82;0.70;;;;;;;;;;5171566;22;20047;-81
2024/01/19 08:26:40;;;;;;;6.55;0.70;;;;;;;;;;5075178;28;20047;-81
2024/01/19 08:29:06;;;;;;;6.38;1.00;;;;;;;;;;5077197;22;20045;-83
2024/01/19 08:31:32;;;;;;;6.38;0.80;;;;;;;;;;5023658;28;20049;-81
2024/01/19 08:33:59;;;;;;;4.25;1.00;;;;;;;;;;5031374;28;20576;-81
2024/01/19 08:36:25;;;;;;;5.88;1.00;;;;;;;;;;5030663;28;20132;-82
2024/01/19 08:38:51;;;;;;;7.00;1.08;;;;;;;;;;5048297;28;20126;-81
2024/01/19 08:41:17;;;;;;;4.20;1.10;;;;;;;;;;5038479;28;20045;-81
2024/01/19 08:43:44;;;;;;;8.27;1.30;;;;;;;;;;5065561;28;20300;-80
2024/01/19 08:46:10;;;;;;;5.65;0.95;;;;;;;;;;5028757;28;20057;-79
2024/01/19 08:48:36;;;;;;;4.95;0.77;;;;;;;;;;5014913;28;20067;-80
2024/01/19 08:51:02;;;;;;;5.72;1.00;;;;;;;;;;5033051;28;20053;-82
2024/01/19 08:53:29;;;;;;;6.70;1.05;;;;;;;;;;5058969;28;20036;-81
2024/01/19 08:55:55;;;;;;;3.63;0.93;;;;;;;;;;5034934;28;20049;-81
2024/01/19 08:58:21;;;;;;;4.88;1.10;;;;;;;;;;5033776;28;20053;-81
2024/01/19 09:00:47;;;;;;;9.20;2.40;;;;;;;;;;5051451;28;20049;-81
2024/01/19 09:03:13;;;;;;;6.15;1.13;;;;;;;;;;5071585;28;20069;-77
2024/01/19 09:05:39;;;;;;;10.70;1.50;;;;;;;;;;5022340;28;20105;-80
2024/01/19 09:08:05;;;;;;;8.45;1.20;;;;;;;;;;5052944;28;20030;-81
2024/01/19 09:10:32;;;;;;;8.25;1.20;;;;;;;;;;5018838;28;20032;-81
2024/01/19 09:13:01;;;;;;;6.60;1.10;;;;;;;;;;5018288;28;20072;-80
2024/01/19 09:15:27;;;;;;;9.13;1.80;;;;;;;;;;5049986;28;20726;-79
2024/01/19 09:17:53;;;;;;;5.93;1.45;;;;;;;;;;5048662;28;20097;-81
2024/01/19 09:20:19;;;;;;;6.03;1.23;;;;;;;;;;5028004;28;20034;-79
2024/01/19 09:22:48;;;;;;;7.88;2.00;;;;;;;;;;5036244;28;20045;-80
2024/01/19 09:25:15;;;;;;;4.63;1.42;;;;;;;;;;5026947;28;20053;-79
2024/01/19 09:27:41;;;;;;;8.50;1.95;;;;;;;;;;5067846;28;20057;-79
2024/01/19 09:30:08;;;;;;;12.98;1.75;;;;;;;;;;5060721;28;20054;-81
2024/01/19 09:32:34;;;;;;;10.82;2.13;;;;;;;;;;5027084;28;20556;-82
2024/01/19 09:35:00;;;;;;;10.30;2.20;;;;;;;;;;5031721;28;20064;-81
2024/01/19 09:37:26;;;;;;;8.13;2.13;;;;;;;;;;5009819;28;20041;-80
2024/01/19 09:39:52;;;;;;;10.95;2.60;;;;;;;;;;5020810;28;20045;-80
2024/01/19 09:42:28;;;;;;;10.45;2.78;;;;;;;;;;5021261;28;20045;-79
2024/01/19 09:45:04;;;;;;;13.43;2.88;;;;;;;;;;5028489;28;20047;-79
2024/01/19 09:47:49;;;;;;;10.60;2.33;;;;;;;;;;5023507;28;20053;-81
2024/01/19 09:50:19;;;;;;;13.30;3.08;;;;;;;;;;5038441;28;20284;-79
2024/01/19 09:52:51;;;;;;;9.05;2.33;;;;;;;;;;5019904;28;20052;-79
2024/01/19 09:55:20;;;;;;;16.08;3.05;;;;;;;;;;5003884;28;20053;-77
2024/01/19 09:57:47;;;;;;;11.43;3.20;;;;;;;;;;5038636;28;20115;-80
2024/01/19 10:00:17;;;;;;;10.98;3.65;;;;;;;;;;5041883;28;20044;-81
2024/01/19 10:02:45;;;;;;;12.90;2.95;;;;;;;;;;5054644;28;20045;-81
2024/01/19 10:05:14;;;;;;;11.48;2.50;;;;;;;;;;5056163;28;20056;-79
2024/01/19 10:07:44;;;;;;;14.02;3.08;;;;;;;;;;5047130;28;20044;-80
2024/01/19 10:10:11;;;;;;;11.80;3.38;;;;;;;;;;5034551;28;20049;-82
2024/01/19 10:12:38;;;;;;;12.07;3.10;;;;;;;;;;5033130;28;20091;-78
2024/01/19 10:15:11;;;;;;;12.45;3.45;;;;;;;;;;5035440;28;20053;-81
2024/01/19 10:17:37;;;;;;;13.52;3.20;;;;;;;;;;5029483;28;20037;-83
2024/01/19 10:20:04;;;;;;;10.95;3.30;;;;;;;;;;5034071;28;20048;-80
2024/01/19 10:22:30;;;;;;;11.57;3.38;;;;;;;;;;5034304;28;20037;-81
2024/01/19 10:25:00;;;;;;;11.63;3.25;;;;;;;;;;5034843;28;20103;-81
2024/01/19 10:27:46;;;;;;;13.10;3.35;;;;;;;;;;5033903;28;20064;-81
2024/01/19 10:30:14;;;;;;;14.83;2.80;;;;;;;;;;5051989;28;20104;-79
2024/01/19 10:32:41;;;;;;;11.50;3.08;;;;;;;;;;5001654;28;20054;-80
2024/01/19 10:35:14;;;;;;;10.98;3.17;;;;;;;;;;5018865;28;20048;-80
2024/01/19 10:37:41;;;;;;;12.40;3.20;;;;;;;;;;5015037;28;20482;-80
2024/01/19 10:40:13;;;;;;;11.02;2.58;;;;;;;;;;5018549;28;20128;-79
2024/01/19 10:42:40;;;;;;;9.35;3.00;;;;;;;;;;5017910;28;20867;-81
2024/01/19 10:45:15;;;;;;;9.73;3.13;;;;;;;;;;5019425;28;20132;-81
2024/01/19 10:47:48;;;;;;;5.65;2.40;;;;;;;;;;5036059;28;20049;-81
2024/01/19 10:50:15;;;;;;;11.27;2.78;;;;;;;;;;5035834;28;20490;-81
2024/01/19 10:52:45;;;;;;;6.47;2.40;;;;;;;;;;5018194;28;20050;-80
2024/01/19 10:55:21;;;;;;;10.18;2.55;;;;;;;;;;5018478;28;20053;-81
2024/01/19 10:57:53;;;;;;;7.47;2.20;;;;;;;;;;5011385;28;20049;-81
2024/01/19 11:00:28;;;;;;;9.73;2.15;;;;;;;;;;5018721;28;20048;-82
2024/01/19 11:02:56;;;;;;;5.63;1.77;;;;;;;;;;5018939;28;20067;-80
2024/01/19 11:05:22;;;;;;;15.90;2.70;;;;;;;;;;5038820;28;20056;-83
2024/01/19 11:07:56;;;;;;;10.35;2.00;;;;;;;;;;5002218;28;20083;-82
2024/01/19 11:10:23;;;;;;;8.40;2.13;;;;;;;;;;5003027;28;20115;-82
2024/01/19 11:12:55;;;;;;;8.20;2.60;;;;;;;;;;5018768;28;20049;-80
2024/01/19 11:15:40;;;;;;;6.55;2.13;;;;;;;;;;5051075;28;20090;-81
2024/01/19 11:18:07;;;;;;;11.23;2.00;;;;;;;;;;5018887;28;20049;-79
2024/01/19 11:20:34;;;;;;;8.38;1.85;;;;;;;;;;5036434;28;20048;-82
2024/01/19 11:23:01;;;;;;;11.45;2.38;;;;;;;;;;5011686;28;20052;-77
2024/01/19 11:25:46;;;;;;;6.82;2.00;;;;;;;;;;5043306;28;20445;-81
2024/01/19 11:28:19;;;;;;;8.75;1.95;;;;;;;;;;5044060;28;20064;-78
2024/01/19 11:30:45;;;;;;;11.57;2.08;;;;;;;;;;5026110;28;20064;-81
2024/01/19 11:33:21;;;;;;;12.38;2.15;;;;;;;;;;5041137;28;20064;-81
2024/01/19 11:35:49;;;;;;;9.50;1.67;;;;;;;;;;5017145;28;20064;-81
2024/01/19 11:38:34;;;;;;;5.82;1.45;;;;;;;;;;5025100;28;20145;-81
2024/01/19 11:41:00;;;;;;;7.43;1.45;;;;;;;;;;5045521;28;20045;-81
2024/01/19 11:43:36;;;;;;;7.68;1.70;;;;;;;;;;5045145;28;20101;-80
2024/01/19 11:46:03;;;;;;;12.57;2.08;;;;;;;;;;5022720;28;20049;-82
2024/01/19 11:48:45;;;;;;;8.88;1.35;;;;;;;;;;5046168;28;20446;-80
2024/01/19 11:51:33;;;;;;;11.55;1.23;;;;;;;;;;5047029;28;20378;-78
2024/01/19 11:54:03;;;;;;;7.18;1.13;;;;;;;;;;5035059;28;20046;-81
2024/01/19 11:56:30;;;;;;;13.20;1.40;;;;;;;;;;5053597;28;20052;-82
2024/01/19 11:58:56;;;;;;;7.75;1.20;;;;;;;;;;5055169;28;20041;-78
2024/01/19 12:01:23;;;;;;;11.35;1.40;;;;;;;;;;5039119;28;20104;-81
2024/01/19 12:03:55;;;;;;;17.90;1.50;;;;;;;;;;5059967;28;20460;-79
2024/01/19 12:06:22;;;;;;;9.70;1.15;;;;;;;;;;5045456;28;20051;-81
2024/01/19 12:09:10;;;;;;;9.55;1.23;;;;;;;;;;5037665;28;20401;-82
2024/01/19 12:11:36;;;;;;;12.75;1.77;;;;;;;;;;5017146;28;20088;-82
2024/01/19 12:14:05;;;;;;;9.82;1.40;;;;;;;;;;5035373;28;20051;-85
2024/01/19 12:16:31;;;;;;;7.57;1.45;;;;;;;;;;5034905;28;20045;-80
2024/01/19 12:18:58;;;;;;;10.77;1.15;;;;;;;;;;5016313;28;20046;-81
2024/01/19 12:21:24;;;;;;;7.85;1.35;;;;;;;;;;5034935;28;20046;-81
2024/01/19 12:23:55;;;;;;;10.60;1.35;;;;;;;;;;5034234;28;20089;-80
2024/01/19 12:26:21;;;;;;;10.98;1.35;;;;;;;;;;5035107;28;20045;-79
2024/01/19 12:28:55;;;;;;;10.48;1.40;;;;;;;;;;5015789;28;20058;-80
2024/01/19 12:31:33;;;;;;;7.15;1.48;;;;;;;;;;5033923;28;20054;-81
2024/01/19 12:34:10;;;;;;;11.63;1.27;;;;;;;;;;4999970;28;20087;-81
2024/01/19 12:36:36;;;;;;;9.07;1.55;;;;;;;;;;5016689;28;20056;-78
2024/01/19 12:39:10;;;;;;;5.82;1.23;;;;;;;;;;5034788;28;20073;-80
2024/01/19 12:41:37;;;;;;;9.65;1.42;;;;;;;;;;5035563;28;20053;-81
2024/01/19 12:44:03;;;;;;;11.18;1.88;;;;;;;;;;5025464;28;20489;-81
2024/01/19 12:46:29;;;;;;;12.95;1.48;;;;;;;;;;5055443;28;20041;-80
2024/01/19 12:48:57;;;;;;;4.85;0.80;;;;;;;;;;5037329;28;20044;-77
2024/01/19 12:51:23;;;;;;;7.20;1.20;;;;;;;;;;5037277;28;20154;-82
2024/01/19 12:53:53;;;;;;;8.38;1.15;;;;;;;;;;5057580;28;20048;-80
2024/01/19 12:56:29;;;;;;;8.25;1.08;;;;;;;;;;5034933;28;20052;-78
2024/01/19 12:59:21;;;;;;;7.15;0.93;;;;;;;;;;5043590;28;20056;-81
2024/01/19 13:01:48;;;;;;;6.60;1.10;;;;;;;;;;5039758;28;20049;-79
2024/01/19 13:04:16;;;;;;;12.38;1.60;;;;;;;;;;5050331;28;20119;-80
2024/01/19 13:06:45;;;;;;;9.20;1.60;;;;;;;;;;5000792;28;20053;-78
2024/01/19 13:09:14;;;;;;;7.63;0.85;;;;;;;;;;5013530;28;20128;-80
2024/01/19 13:11:41;;;;;;;7.25;1.20;;;;;;;;;;5038611;28;20041;-80
2024/01/19 13:14:07;;;;;;;8.27;1.20;;;;;;;;;;5021432;28;20056;-80
2024/01/19 13:16:49;;;;;;;6.30;1.03;;;;;;;;;;5021899;28;20045;-80
2024/01/19 13:19:25;;;;;;;7.80;1.27;;;;;;;;;;5055767;28;20341;-81
2024/01/19 13:21:52;;;;;;;9.77;1.02;;;;;;;;;;5055291;28;20136;-81
2024/01/19 13:24:18;;;;;;;7.45;1.52;;;;;;;;;;5055723;28;20048;-80
2024/01/19 13:26:44;;;;;;;7.75;1.00;;;;;;;;;;5037063;28;20041;-77
2024/01/19 13:29:10;;;;;;;7.47;1.10;;;;;;;;;;5054570;28;20508;-81
2024/01/19 13:31:36;;;;;;;8.50;0.93;;;;;;;;;;5036936;28;20051;-80
2024/01/19 13:34:02;;;;;;;5.55;0.95;;;;;;;;;;5019450;28;20049;-79
2024/01/19 13:36:30;;;;;;;8.98;1.00;;;;;;;;;;5054968;28;20092;-80
2024/01/19 13:38:56;;;;;;;11.10;0.93;;;;;;;;;;5053586;28;20045;-81
2024/01/19 13:41:22;;;;;;;9.32;1.30;;;;;;;;;;5036721;28;20091;-80
2024/01/19 13:43:48;;;;;;;5.90;0.90;;;;;;;;;;5035837;28;20049;-83
2024/01/19 13:46:15;;;;;;;9.93;1.00;;;;;;;;;;5036571;28;20048;-80
2024/01/19 13:48:41;;;;;;;5.43;0.82;;;;;;;;;;5035718;28;20408;-79
2024/01/19 13:51:09;;;;;;;9.48;1.00;;;;;;;;;;5036259;28;20052;-82
2024/01/19 13:53:35;;;;;;;5.22;0.85;;;;;;;;;;5036450;28;20084;-83
2024/01/19 13:56:01;;;;;;;7.10;1.10;;;;;;;;;;5053437;28;20048;-80
2024/01/19 13:58:27;;;;;;;4.28;1.15;;;;;;;;;;5053418;28;20045;-81
2024/01/19 14:00:53;;;;;;;10.02;0.85;;;;;;;;;;5053030;28;20507;-80
2024/01/19 14:03:19;;;;;;;4.43;1.67;;;;;;;;;;5053044;28;20037;-81
2024/01/19 14:05:47;;;;;;;11.05;1.30;;;;;;;;;;5053020;28;20064;-78
2024/01/19 14:08:14;;;;;;;5.47;0.93;;;;;;;;;;5019000;28;20045;-80
2024/01/19 14:10:40;;;;;;;9.52;1.60;;;;;;;;;;5035808;28;20077;-80
2024/01/19 14:13:07;;;;;;;9.75;1.35;;;;;;;;;;5052662;28;20045;-79
2024/01/19 14:15:33;;;;;;;8.95;1.48;;;;;;;;;;5053367;28;20052;-79
2024/01/19 14:17:59;;;;;;;7.22;0.95;;;;;;;;;;5053031;28;20049;-80
2024/01/19 14:20:25;;;;;;;10.20;1.30;;;;;;;;;;5018887;28;20099;-79
2024/01/19 14:22:51;;;;;;;8.73;1.00;;;;;;;;;;5052768;28;20041;-79
2024/01/19 14:25:17;;;;;;;8.43;1.42;;;;;;;;;;5018634;28;20053;-80
2024/01/19 14:27:44;;;;;;;11.02;1.20;;;;;;;;;;5053132;28;20532;-78
2024/01/19 14:30:10;;;;;;;8.70;1.37;;;;;;;;;;5035762;28;20065;-81
2024/01/19 14:32:37;;;;;;;4.10;0.93;;;;;;;;;;5057541;28;20049;-81
2024/01/19 14:35:03;;;;;;;7.00;1.10;;;;;;;;;;5062544;28;20049;-81
2024/01/19 14:37:29;;;;;;;11.57;1.10;;;;;;;;;;5039147;28;20412;-79
2024/01/19 14:39:55;;;;;;;9.77;1.40;;;;;;;;;;5035178;28;20132;-81
2024/01/19 14:42:22;;;;;;;14.77;1.77;;;;;;;;;;5018454;28;20126;-81
2024/01/19 14:44:48;;;;;;;11.88;1.60;;;;;;;;;;5052433;28;20045;-81
2024/01/19 14:47:14;;;;;;;7.10;1.23;;;;;;;;;;5017862;28;20497;-81